createdAt,value
2018-03-30T00:00:23.051Z,24.40
2018-03-30T00:02:57.572Z,24.40
2018-03-30T00:05:32.288Z,24.40
2018-03-30T00:08:06.760Z,24.30
2018-03-30T00:10:47.079Z,24.40
2018-03-30T00:13:21.891Z,24.40
2018-03-30T00:15:56.634Z,24.30
2018-03-30T00:18:31.952Z,24.30
2018-03-30T00:21:06.626Z,24.40
2018-03-30T00:23:42.039Z,24.30
2018-03-30T00:26:16.787Z,24.30
2018-03-30T00:28:52.110Z,24.30
2018-03-30T00:31:26.713Z,24.30
2018-03-30T00:34:01.401Z,24.30
2018-03-30T00:36:36.004Z,24.30
2018-03-30T00:39:10.503Z,24.30
2018-03-30T00:41:45.139Z,24.20
2018-03-30T00:44:19.688Z,24.20
2018-03-30T00:46:54.298Z,24.30
2018-03-30T00:49:28.852Z,24.10
2018-03-30T00:52:03.874Z,24.20
2018-03-30T00:54:39.314Z,24.30
2018-03-30T00:57:14.108Z,24.30
2018-03-30T00:59:48.831Z,24.30
2018-03-30T01:02:23.782Z,24.30
2018-03-30T01:04:58.590Z,24.20
2018-03-30T01:07:33.268Z,24.20
2018-03-30T01:10:07.949Z,24.00
2018-03-30T01:12:42.671Z,24.10
2018-03-30T01:15:17.404Z,24.20
2018-03-30T01:17:52.124Z,23.90
2018-03-30T01:20:26.747Z,24.10
2018-03-30T01:23:01.414Z,24.00
2018-03-30T01:25:36.037Z,24.00
2018-03-30T01:28:10.563Z,24.00
2018-03-30T01:30:45.199Z,24.10
2018-03-30T01:33:20.022Z,24.10
2018-03-30T01:35:54.656Z,24.00
2018-03-30T01:38:29.240Z,23.80
2018-03-30T01:41:03.656Z,23.80
2018-03-30T01:43:39.705Z,23.80
2018-03-30T01:46:14.439Z,23.80
2018-03-30T01:48:49.180Z,23.90
2018-03-30T01:51:23.933Z,24.00
2018-03-30T01:53:58.526Z,24.10
2018-03-30T01:56:33.164Z,23.90
2018-03-30T01:59:07.789Z,23.90
2018-03-30T02:01:43.066Z,23.90
2018-03-30T02:04:17.764Z,23.90
2018-03-30T02:06:52.470Z,23.80
2018-03-30T02:09:27.088Z,23.90
2018-03-30T02:12:01.738Z,23.80
2018-03-30T02:14:36.451Z,23.70
2018-03-30T02:17:11.167Z,23.80
2018-03-30T02:19:45.835Z,23.70
2018-03-30T02:22:20.537Z,23.80
2018-03-30T02:24:55.145Z,23.80
2018-03-30T02:27:30.476Z,23.70
2018-03-30T02:30:05.354Z,23.60
2018-03-30T02:32:40.672Z,23.70
2018-03-30T02:35:15.797Z,23.70
2018-03-30T02:37:51.283Z,23.70
2018-03-30T02:40:25.873Z,23.70
2018-03-30T02:43:00.489Z,23.70
2018-03-30T02:45:34.913Z,23.70
2018-03-30T02:48:09.505Z,23.70
2018-03-30T02:50:44.085Z,23.50
2018-03-30T02:53:18.723Z,23.50
2018-03-30T02:55:53.308Z,23.50
2018-03-30T02:58:28.042Z,23.60
2018-03-30T03:01:03.398Z,23.70
2018-03-30T03:03:38.023Z,23.70
2018-03-30T03:06:12.902Z,23.60
2018-03-30T03:08:48.189Z,23.50
2018-03-30T03:11:23.557Z,23.50
2018-03-30T03:13:58.343Z,23.60
2018-03-30T03:16:33.211Z,23.40
2018-03-30T03:19:08.732Z,23.50
2018-03-30T03:21:43.441Z,23.40
2018-03-30T03:24:18.203Z,23.40
2018-03-30T03:26:53.370Z,23.50
2018-03-30T03:29:27.935Z,23.50
2018-03-30T03:32:02.565Z,23.50
2018-03-30T03:34:37.096Z,23.50
2018-03-30T03:37:11.600Z,23.40
2018-03-30T03:39:46.190Z,23.40
2018-03-30T03:42:20.956Z,23.50
2018-03-30T03:44:55.802Z,23.60
2018-03-30T03:47:30.341Z,23.50
2018-03-30T03:50:04.810Z,23.50
2018-03-30T03:52:39.341Z,23.40
2018-03-30T03:55:14.066Z,23.40
2018-03-30T03:57:48.720Z,23.40
2018-03-30T04:00:23.442Z,23.40
2018-03-30T04:02:58.060Z,23.20
2018-03-30T04:05:33.097Z,23.20
2018-03-30T04:08:07.869Z,23.20
2018-03-30T04:10:42.288Z,23.00
2018-03-30T04:13:17.216Z,23.10
2018-03-30T04:15:51.707Z,23.00
2018-03-30T04:18:26.170Z,22.90
2018-03-30T04:21:00.957Z,23.00
2018-03-30T04:23:35.464Z,23.40
2018-03-30T04:26:10.029Z,23.20
2018-03-30T04:28:44.468Z,23.00
2018-03-30T04:31:19.392Z,22.90
2018-03-30T04:33:54.074Z,23.10
2018-03-30T04:36:28.616Z,23.10
2018-03-30T04:39:03.276Z,23.10
2018-03-30T04:41:38.569Z,23.20
2018-03-30T04:44:13.319Z,23.20
2018-03-30T04:46:47.912Z,23.10
2018-03-30T04:49:22.650Z,23.20
2018-03-30T04:51:57.185Z,23.10
2018-03-30T04:54:31.838Z,22.90
2018-03-30T04:57:06.626Z,23.00
2018-03-30T04:59:41.139Z,23.00
2018-03-30T05:02:15.724Z,22.90
2018-03-30T05:04:50.321Z,22.80
2018-03-30T05:07:24.907Z,23.00
2018-03-30T05:09:59.651Z,22.90
2018-03-30T05:12:34.321Z,23.10
2018-03-30T05:15:08.835Z,22.90
2018-03-30T05:17:43.403Z,22.80
2018-03-30T05:20:18.103Z,22.60
2018-03-30T05:22:52.805Z,22.80
2018-03-30T05:25:28.111Z,23.00
2018-03-30T05:28:02.941Z,23.00
2018-03-30T05:30:37.455Z,22.90
2018-03-30T05:33:11.966Z,22.70
2018-03-30T05:35:46.704Z,23.10
2018-03-30T05:38:21.428Z,23.00
2018-03-30T05:40:55.864Z,22.90
2018-03-30T05:43:31.310Z,23.30
2018-03-30T05:46:06.136Z,23.30
2018-03-30T05:48:40.797Z,23.10
2018-03-30T05:51:15.312Z,23.20
2018-03-30T05:53:49.998Z,23.00
2018-03-30T05:56:24.781Z,23.30
2018-03-30T05:58:59.808Z,23.20
2018-03-30T06:01:34.532Z,23.20
2018-03-30T06:04:09.010Z,23.30
2018-03-30T06:06:43.639Z,23.10
2018-03-30T06:09:18.145Z,23.20
2018-03-30T06:11:52.780Z,23.00
2018-03-30T06:14:27.860Z,23.20
2018-03-30T06:17:02.445Z,23.10
2018-03-30T06:19:36.978Z,23.30
2018-03-30T06:22:11.498Z,23.40
2018-03-30T06:24:46.119Z,23.40
2018-03-30T06:27:20.784Z,23.40
2018-03-30T06:29:55.369Z,23.30
2018-03-30T06:32:30.100Z,23.30
2018-03-30T06:35:04.791Z,23.60
2018-03-30T06:37:39.452Z,23.60
2018-03-30T06:40:14.178Z,23.50
2018-03-30T06:42:48.670Z,23.50
2018-03-30T06:45:23.665Z,23.70
2018-03-30T06:47:58.395Z,24.00
2018-03-30T06:50:33.179Z,24.00
2018-03-30T06:53:07.747Z,24.10
2018-03-30T06:55:42.276Z,24.00
2018-03-30T06:58:16.954Z,24.10
2018-03-30T07:00:51.467Z,24.10
2018-03-30T07:03:26.328Z,24.10
2018-03-30T07:06:01.032Z,24.10
2018-03-30T07:08:35.719Z,24.10
2018-03-30T07:11:10.424Z,24.10
2018-03-30T07:13:45.115Z,24.00
2018-03-30T07:16:19.834Z,24.20
2018-03-30T07:18:54.476Z,24.30
2018-03-30T07:21:29.191Z,24.30
2018-03-30T07:24:03.815Z,24.20
2018-03-30T07:26:38.444Z,24.30
2018-03-30T07:29:13.270Z,24.20
2018-03-30T07:31:47.796Z,24.30
2018-03-30T07:34:22.446Z,24.30
2018-03-30T07:36:57.044Z,24.20
2018-03-30T07:39:32.385Z,24.10
2018-03-30T07:42:07.013Z,24.10
2018-03-30T07:44:41.762Z,24.10
2018-03-30T07:47:16.370Z,24.20
2018-03-30T07:49:51.112Z,23.90
2018-03-30T07:52:25.721Z,24.10
2018-03-30T07:55:00.247Z,24.10
2018-03-30T07:57:34.875Z,24.20
2018-03-30T08:00:09.276Z,24.10
2018-03-30T08:02:43.952Z,24.20
2018-03-30T08:05:18.531Z,24.30
2018-03-30T08:07:53.870Z,24.20
2018-03-30T08:10:28.610Z,24.40
2018-03-30T08:13:04.032Z,24.50
2018-03-30T08:15:38.682Z,24.40
2018-03-30T08:18:13.637Z,24.40
2018-03-30T08:20:49.569Z,24.60
2018-03-30T08:23:24.296Z,24.60
2018-03-30T08:25:58.936Z,24.60
2018-03-30T08:28:33.535Z,24.60
2018-03-30T08:31:08.278Z,24.60
2018-03-30T08:33:42.790Z,24.50
2018-03-30T08:36:17.456Z,24.60
2018-03-30T08:38:52.143Z,24.60
2018-03-30T08:41:26.703Z,24.60
2018-03-30T08:44:02.103Z,24.70
2018-03-30T08:46:37.078Z,24.60
2018-03-30T08:49:11.774Z,24.70
2018-03-30T08:51:46.492Z,24.70
2018-03-30T08:54:21.229Z,24.60
2018-03-30T08:56:56.298Z,24.70
2018-03-30T08:59:30.875Z,24.60
2018-03-30T09:02:06.793Z,24.70
2018-03-30T09:04:41.355Z,24.60
2018-03-30T09:07:16.088Z,24.70
2018-03-30T09:09:50.707Z,24.70
2018-03-30T09:12:25.272Z,24.70
2018-03-30T09:14:59.969Z,24.70
2018-03-30T09:17:34.548Z,24.70
2018-03-30T09:20:09.935Z,24.70
2018-03-30T09:22:44.547Z,24.70
2018-03-30T09:25:19.094Z,24.70
2018-03-30T09:27:53.658Z,24.70
2018-03-30T09:30:28.222Z,24.80
2018-03-30T09:33:02.723Z,24.70
2018-03-30T09:35:37.264Z,24.70
2018-03-30T09:38:11.765Z,24.70
2018-03-30T09:40:46.615Z,24.70
2018-03-30T09:43:21.239Z,24.80
2018-03-30T09:45:55.920Z,24.80
2018-03-30T09:48:30.411Z,24.80
2018-03-30T09:51:04.865Z,24.80
2018-03-30T09:53:39.433Z,24.60
2018-03-30T09:56:14.161Z,24.70
2018-03-30T09:58:50.632Z,24.80
2018-03-30T10:01:25.674Z,24.80
2018-03-30T10:04:00.080Z,24.80
2018-03-30T10:06:35.306Z,24.80
2018-03-30T10:09:09.945Z,24.90
2018-03-30T10:11:44.811Z,24.90
2018-03-30T10:14:19.313Z,24.90
2018-03-30T10:16:53.950Z,24.90
2018-03-30T10:19:28.654Z,24.90
2018-03-30T10:22:03.362Z,24.90
2018-03-30T10:24:38.036Z,24.90
2018-03-30T10:27:12.734Z,24.80
2018-03-30T10:29:47.469Z,24.80
2018-03-30T10:32:21.992Z,24.90
2018-03-30T10:34:56.717Z,24.90
2018-03-30T10:37:31.443Z,24.90
2018-03-30T10:40:05.871Z,24.90
2018-03-30T10:42:40.519Z,24.90
2018-03-30T10:45:15.815Z,24.90
2018-03-30T10:47:50.682Z,24.90
2018-03-30T10:50:25.202Z,24.90
2018-03-30T10:52:59.914Z,24.90
2018-03-30T10:55:34.414Z,24.90
2018-03-30T10:58:09.154Z,25.00
2018-03-30T11:00:43.778Z,25.00
2018-03-30T11:03:18.447Z,25.00
2018-03-30T11:05:53.137Z,25.00
2018-03-30T11:08:27.629Z,25.00
2018-03-30T11:11:02.516Z,24.90
2018-03-30T11:13:37.052Z,25.00
2018-03-30T11:16:11.833Z,25.00
2018-03-30T11:18:46.477Z,25.10
2018-03-30T11:21:21.846Z,25.00
2018-03-30T11:23:56.579Z,25.10
2018-03-30T11:26:31.258Z,25.00
2018-03-30T11:29:05.913Z,25.00
2018-03-30T11:31:40.551Z,25.00
2018-03-30T11:34:14.994Z,25.00
2018-03-30T11:36:49.503Z,25.00
2018-03-30T11:39:24.094Z,25.10
2018-03-30T11:41:58.773Z,25.10
2018-03-30T11:44:34.464Z,25.00
2018-03-30T11:47:08.971Z,25.00
2018-03-30T11:49:43.817Z,25.00
2018-03-30T11:52:18.663Z,25.10
2018-03-30T11:54:53.286Z,25.10
2018-03-30T11:57:27.928Z,25.10
2018-03-30T12:00:02.556Z,25.10
2018-03-30T12:02:37.131Z,25.10
2018-03-30T12:05:11.780Z,25.10
2018-03-30T12:07:46.546Z,25.10
2018-03-30T12:10:21.117Z,25.10
2018-03-30T12:12:55.682Z,25.10
2018-03-30T12:15:30.188Z,25.10
2018-03-30T12:18:04.786Z,25.10
2018-03-30T12:20:39.419Z,25.10
2018-03-30T12:23:14.038Z,25.10
2018-03-30T12:25:48.664Z,25.10
2018-03-30T12:28:23.631Z,25.10
2018-03-30T12:30:58.060Z,25.10
2018-03-30T12:33:33.085Z,25.10
2018-03-30T12:36:07.565Z,25.10
2018-03-30T12:38:43.010Z,25.10
2018-03-30T12:41:17.689Z,25.10
2018-03-30T12:43:53.027Z,25.10
2018-03-30T12:46:27.705Z,25.00
2018-03-30T12:49:02.473Z,25.10
2018-03-30T12:51:37.890Z,25.20
2018-03-30T12:54:12.507Z,25.10
2018-03-30T12:56:47.141Z,25.20
2018-03-30T12:59:21.916Z,25.10
2018-03-30T13:01:56.520Z,25.20
2018-03-30T13:04:31.094Z,25.10
2018-03-30T13:07:05.764Z,25.10
2018-03-30T13:09:40.367Z,25.10
2018-03-30T13:12:15.089Z,25.10
2018-03-30T13:14:49.713Z,25.10
2018-03-30T13:17:24.434Z,25.10
2018-03-30T13:19:59.157Z,25.10
2018-03-30T13:22:33.859Z,25.10
2018-03-30T13:25:09.036Z,25.10
2018-03-30T13:27:44.508Z,25.10
2018-03-30T13:30:19.120Z,25.10
2018-03-30T13:32:53.819Z,25.10
2018-03-30T13:35:28.455Z,25.10
2018-03-30T13:38:03.164Z,25.20
2018-03-30T13:40:37.845Z,25.10
2018-03-30T13:43:12.533Z,25.10
2018-03-30T13:45:47.499Z,25.10
2018-03-30T13:48:21.980Z,25.20
2018-03-30T13:51:17.844Z,25.20
2018-03-30T13:53:54.296Z,25.10
2018-03-30T13:56:30.743Z,25.10
2018-03-30T13:59:06.079Z,25.10
2018-03-30T14:01:43.684Z,25.10
2018-03-30T14:04:20.255Z,25.10
2018-03-30T14:06:56.702Z,25.10
2018-03-30T14:09:33.081Z,25.10
2018-03-30T14:12:25.215Z,25.10
2018-03-30T14:14:59.947Z,25.10
2018-03-30T14:17:40.405Z,25.00
2018-03-30T14:20:19.559Z,25.10
2018-03-30T14:22:55.091Z,25.10
2018-03-30T14:25:32.463Z,25.10
2018-03-30T14:28:10.677Z,25.10
2018-03-30T14:30:54.753Z,25.10
2018-03-30T14:33:30.164Z,25.10
2018-03-30T14:36:25.694Z,25.10
2018-03-30T14:39:11.984Z,25.10
2018-03-30T14:41:46.751Z,25.10
2018-03-30T14:44:22.300Z,25.10
2018-03-30T14:46:58.368Z,25.10
2018-03-30T14:49:35.803Z,25.00
2018-03-30T14:52:23.240Z,25.10
2018-03-30T14:54:59.725Z,25.10
2018-03-30T14:57:35.988Z,25.10
2018-03-30T15:00:23.288Z,25.10
2018-03-30T15:03:03.732Z,25.10
2018-03-30T15:05:43.253Z,25.10
2018-03-30T15:08:22.523Z,25.10
2018-03-30T15:11:01.601Z,25.00
2018-03-30T15:13:51.939Z,25.00
2018-03-30T15:19:45.272Z,25.10
2018-03-30T15:22:22.666Z,25.10
2018-03-30T15:28:02.973Z,25.10
2018-03-30T15:30:41.195Z,25.10
2018-03-30T15:33:34.237Z,25.10
2018-03-30T15:36:33.788Z,25.10
2018-03-30T15:39:09.127Z,25.10
2018-03-30T15:41:48.147Z,25.00
2018-03-30T15:44:23.013Z,25.10
2018-03-30T15:47:02.555Z,25.10
2018-03-30T15:49:38.880Z,25.10
2018-03-30T15:52:14.433Z,25.10
2018-03-30T15:54:49.060Z,25.10
2018-03-30T15:57:24.392Z,25.10
2018-03-30T15:59:59.077Z,25.10
2018-03-30T16:02:33.744Z,25.10
2018-03-30T16:05:08.280Z,25.10
2018-03-30T16:07:43.028Z,25.10
2018-03-30T16:10:21.081Z,25.10
2018-03-30T16:12:55.733Z,25.10
2018-03-30T16:15:30.346Z,25.10
2018-03-30T16:18:04.991Z,25.10
2018-03-30T16:20:39.088Z,25.10
2018-03-30T16:23:13.215Z,25.10
2018-03-30T16:25:47.416Z,25.10
2018-03-30T16:28:21.493Z,25.10
2018-03-30T16:30:55.568Z,25.10
2018-03-30T16:33:29.761Z,25.10
2018-03-30T16:36:03.920Z,25.10
2018-03-30T16:38:38.079Z,25.10
2018-03-30T16:41:11.822Z,25.10
2018-03-30T16:43:45.704Z,25.10
2018-03-30T16:46:19.449Z,25.10
2018-03-30T16:48:53.243Z,25.10
2018-03-30T16:51:27.963Z,25.10
2018-03-30T16:54:01.751Z,25.10
2018-03-30T16:56:36.468Z,25.10
2018-03-30T16:59:10.285Z,25.10
2018-03-30T17:01:44.931Z,25.10
2018-03-30T17:04:18.840Z,25.10
2018-03-30T17:06:53.437Z,25.10
2018-03-30T17:09:27.460Z,25.10
2018-03-30T17:12:02.168Z,25.10
2018-03-30T17:14:36.185Z,25.10
2018-03-30T17:17:10.133Z,25.10
2018-03-30T17:19:44.095Z,25.10
2018-03-30T17:22:18.753Z,25.10
2018-03-30T17:24:52.779Z,25.10
2018-03-30T17:27:26.645Z,25.10
2018-03-30T17:30:00.768Z,25.10
2018-03-30T17:32:35.412Z,25.10
2018-03-30T17:35:09.298Z,25.10
2018-03-30T17:37:43.096Z,25.10
2018-03-30T17:40:17.044Z,25.10
2018-03-30T17:42:51.655Z,25.10
2018-03-30T17:45:26.296Z,25.10
2018-03-30T17:48:00.905Z,25.00
2018-03-30T17:50:35.082Z,25.00
2018-03-30T17:53:08.980Z,25.00
2018-03-30T17:55:42.808Z,25.00
2018-03-30T17:58:16.741Z,25.10
2018-03-30T18:00:50.641Z,25.00
2018-03-30T18:03:24.531Z,25.00
2018-03-30T18:05:58.401Z,25.00
2018-03-30T18:08:33.081Z,25.00
2018-03-30T18:11:07.102Z,25.00
2018-03-30T18:13:41.723Z,25.00
2018-03-30T18:16:15.702Z,25.00
2018-03-30T18:18:49.619Z,24.90
2018-03-30T18:21:23.636Z,25.00
2018-03-30T18:23:57.544Z,25.00
2018-03-30T18:26:31.444Z,25.00
2018-03-30T18:29:05.363Z,24.90
2018-03-30T18:31:39.392Z,25.00
2018-03-30T18:34:14.336Z,24.90
2018-03-30T18:36:48.319Z,24.90
2018-03-30T18:39:22.449Z,24.90
2018-03-30T18:41:56.313Z,24.90
2018-03-30T18:44:30.361Z,24.90
2018-03-30T18:47:04.460Z,24.90
2018-03-30T18:49:39.526Z,24.90
2018-03-30T18:52:13.412Z,24.90
2018-03-30T18:54:47.213Z,24.90
2018-03-30T18:57:21.755Z,24.90
2018-03-30T18:59:56.080Z,24.90
2018-03-30T19:02:29.938Z,24.90
2018-03-30T19:05:04.206Z,24.90
2018-03-30T19:07:38.270Z,24.90
2018-03-30T19:10:13.004Z,24.90
2018-03-30T19:12:47.008Z,24.90
2018-03-30T19:15:20.873Z,24.90
2018-03-30T19:17:54.736Z,24.80
2018-03-30T19:20:30.008Z,24.90
2018-03-30T19:23:04.529Z,24.90
2018-03-30T19:25:38.401Z,24.90
2018-03-30T19:28:12.287Z,24.90
2018-03-30T19:30:46.350Z,24.80
2018-03-30T19:33:21.150Z,24.90
2018-03-30T19:35:55.195Z,24.80
2018-03-30T19:38:29.815Z,24.90
2018-03-30T19:41:03.627Z,24.80
2018-03-30T19:43:38.250Z,24.90
2018-03-30T19:46:12.323Z,24.90
2018-03-30T19:48:46.889Z,24.80
2018-03-30T19:51:21.103Z,24.80
2018-03-30T19:53:54.977Z,24.80
2018-03-30T19:56:29.517Z,24.80
2018-03-30T19:59:03.644Z,24.80
2018-03-30T20:01:37.862Z,24.80
2018-03-30T20:04:11.636Z,24.90
2018-03-30T20:06:45.647Z,24.80
2018-03-30T20:09:20.304Z,24.80
2018-03-30T20:11:54.283Z,24.80
2018-03-30T20:14:28.173Z,24.70
2018-03-30T20:17:02.746Z,24.70
2018-03-30T20:19:37.355Z,24.60
2018-03-30T20:22:11.553Z,24.60
2018-03-30T20:24:45.555Z,24.60
2018-03-30T20:27:19.567Z,24.50
2018-03-30T20:29:54.201Z,24.60
2018-03-30T20:32:28.120Z,24.60
2018-03-30T20:35:02.355Z,24.50
2018-03-30T20:37:36.323Z,24.50
2018-03-30T20:40:10.258Z,24.40
2018-03-30T20:42:44.156Z,24.40
2018-03-30T20:45:18.043Z,24.40
2018-03-30T20:47:51.955Z,24.50
2018-03-30T20:50:25.790Z,24.50
2018-03-30T20:53:00.591Z,24.50
2018-03-30T20:55:34.625Z,24.50
2018-03-30T20:58:09.269Z,24.40
2018-03-30T21:00:43.132Z,24.40
2018-03-30T21:03:16.952Z,24.50
2018-03-30T21:05:51.607Z,24.50
2018-03-30T21:08:25.526Z,24.50
2018-03-30T21:10:59.832Z,24.40
2018-03-30T21:13:33.695Z,24.50
2018-03-30T21:16:07.518Z,24.50
2018-03-30T21:18:41.426Z,24.30
2018-03-30T21:21:15.352Z,24.50
2018-03-30T21:23:49.190Z,24.50
2018-03-30T21:26:23.132Z,24.50
2018-03-30T21:28:57.807Z,24.60
2018-03-30T21:31:32.447Z,24.70
2018-03-30T21:34:06.319Z,24.70
2018-03-30T21:36:40.668Z,24.50
2018-03-30T21:39:14.523Z,24.60
2018-03-30T21:41:49.249Z,24.60
2018-03-30T21:44:23.232Z,24.50
2018-03-30T21:46:57.169Z,24.50
2018-03-30T21:49:31.852Z,24.60
2018-03-30T21:52:05.909Z,24.60
2018-03-30T21:54:39.776Z,24.50
2018-03-30T21:57:14.444Z,24.50
2018-03-30T21:59:48.420Z,24.50
2018-03-30T22:02:23.003Z,24.50
2018-03-30T22:04:56.781Z,24.50
2018-03-30T22:07:30.698Z,24.20
2018-03-30T22:10:05.275Z,24.20
2018-03-30T22:12:39.218Z,24.20
2018-03-30T22:15:13.128Z,24.30
2018-03-30T22:17:46.981Z,24.20
2018-03-30T22:20:20.956Z,24.40
2018-03-30T22:22:55.596Z,24.50
2018-03-30T22:25:29.475Z,24.50
2018-03-30T22:28:03.207Z,24.50
2018-03-30T22:30:38.008Z,24.40
2018-03-30T22:33:12.048Z,24.40
2018-03-30T22:35:46.061Z,24.50
2018-03-30T22:38:21.107Z,24.50
2018-03-30T22:40:55.905Z,24.30
2018-03-30T22:43:29.702Z,24.30
2018-03-30T22:46:03.608Z,24.30
2018-03-30T22:48:37.449Z,24.40
2018-03-30T22:51:11.570Z,24.30
2018-03-30T22:53:45.887Z,24.30
2018-03-30T22:56:20.102Z,24.20
2018-03-30T22:58:54.318Z,24.30
2018-03-30T23:01:28.196Z,24.20
2018-03-30T23:04:02.543Z,24.10
2018-03-30T23:06:36.472Z,24.20
2018-03-30T23:09:10.626Z,24.20
2018-03-30T23:11:44.804Z,24.10
2018-03-30T23:14:19.302Z,24.30
2018-03-30T23:16:53.305Z,24.40
2018-03-30T23:19:27.427Z,24.40
2018-03-30T23:22:02.311Z,24.40
2018-03-30T23:24:36.454Z,24.30
2018-03-30T23:27:10.588Z,24.40
2018-03-30T23:29:44.859Z,24.30
2018-03-30T23:32:19.149Z,24.10
2018-03-30T23:34:53.404Z,24.20
2018-03-30T23:37:27.607Z,24.10
2018-03-30T23:40:01.668Z,23.80
2018-03-30T23:42:35.774Z,23.80
2018-03-30T23:45:09.900Z,23.90
2018-03-30T23:47:44.099Z,23.90
2018-03-30T23:50:18.220Z,24.00
2018-03-30T23:52:52.423Z,24.00
2018-03-30T23:55:26.599Z,24.00
2018-03-30T23:58:01.660Z,23.80
